KBDR

Igor I Sikorsky Memorial Airport

Bridgeport, Connecticut, USA
METAR KBDR 241252Z 05013KT 10SM CLR 14/10 A3047 RMK AO2 SLP319 T01440100
Observed Flight Rules
Sep-24 @ 12:52 UTC (45 minutes ago) Visual Flight Rules
Wind Visibility Clouds
50° at 13 knots 10 miles
  • Clear skies
Temperatures Readings
Current 14°C / 57°F
Dewpoint 10°C / 50°F
Humidity 77%
Altimeter 30.47" Hg
Pressure 1031.9 hPa
Elevation 7
METAR KBDR 241252Z 05013KT 10SM CLR 14/10 A3047 RMK AO2 SLP319 T01440100
Observed Flight Rules
Sep-24 @ 12:52 UTC
(45 minutes ago)
VFR
Wind Visibility
50° at 13 knots 10 miles
Clouds
  • Clear skies
Temperature Dewpoint
14°C / 57°F 10°C / 50°F
Humidity Altimeter Pressure
77% 30.47" Hg 1031.9 hPa